19/04/05 - 12h:02mDenunciar

Embraer T-27 Tucano

O magnífico símbolo do EDA (Esquadrão de Demonstração Aérea), colocado em ambas laterais dianteiras das aeronaves.





O Tucano número 7 da Esquadrilha da Fumaça esteve hoje (17/04/05) presente em Parnaíba para vistoria da área do show que ocorrerá no dia 31 de Maio (Terça-feira). Conectados à cada asa da aeronave estavam dois tanques alijáveis com capacidade de 330 litros de combustível JET-A1, com a finalidade de ampliar o alcance da aeronave. Segundo os tripulantes, a configuração foi aplicada como teste para um vôo que ocorrerá brevemente até a França, onde serão realizadas mais apresentações em comemoração ao ano do Brasil naquele país. O show deste ano em Parnaíba será efetuado no aeroporto e infelizmente as aeronaves do esquadrão não irão aterrisar como em 2003. Os T-27 irão operar a partir de São Luiz e apenas uma aeronave pousará em Parnaíba com um dos integrantes responsáveis pela locução e entretenimento do público durante as manobras. Deixo aqui os meus agradecimentos à cordial tripulação, assim como também ao controlador José Maria e ao soldado Nelson da Polícia Militar do Piauí.





METAR SBPB 191500Z 07014KT 9999 FEW020 BKN100 BKN300 33/25 Q1010=

Comentários (0)

Fotos postadas a mais de 15 dias não podem receber comentários.